sensor_id;sensor_type;location;lat;lon;timestamp;P1;durP1;ratioP1;P2;durP2;ratioP2
46505;SDS011;32220;49.808;9.968;2023-07-20T00:00:27;2.73;;;2.00;;
46505;SDS011;32220;49.808;9.968;2023-07-20T00:03:05;2.43;;;2.23;;
46505;SDS011;32220;49.808;9.968;2023-07-20T00:05:39;2.10;;;1.90;;
46505;SDS011;32220;49.808;9.968;2023-07-20T00:08:06;2.27;;;1.80;;
46505;SDS011;32220;49.808;9.968;2023-07-20T00:10:34;2.63;;;2.43;;
46505;SDS011;32220;49.808;9.968;2023-07-20T00:13:01;3.20;;;2.33;;
46505;SDS011;32220;49.808;9.968;2023-07-20T00:15:29;5.07;;;2.33;;
46505;SDS011;32220;49.808;9.968;2023-07-20T00:17:56;3.37;;;2.10;;
46505;SDS011;32220;49.808;9.968;2023-07-20T00:20:24;2.20;;;1.93;;
46505;SDS011;32220;49.808;9.968;2023-07-20T00:22:53;3.00;;;2.80;;
46505;SDS011;32220;49.808;9.968;2023-07-20T00:25:21;2.67;;;2.47;;
46505;SDS011;32220;49.808;9.968;2023-07-20T00:27:48;2.20;;;1.97;;
46505;SDS011;32220;49.808;9.968;2023-07-20T00:30:16;2.23;;;2.03;;
46505;SDS011;32220;49.808;9.968;2023-07-20T00:32:44;2.67;;;2.40;;
46505;SDS011;32220;49.808;9.968;2023-07-20T00:35:12;2.50;;;2.30;;
46505;SDS011;32220;49.808;9.968;2023-07-20T00:37:41;2.67;;;2.27;;
46505;SDS011;32220;49.808;9.968;2023-07-20T00:40:10;2.67;;;2.23;;
46505;SDS011;32220;49.808;9.968;2023-07-20T00:42:38;4.20;;;2.20;;
46505;SDS011;32220;49.808;9.968;2023-07-20T00:45:07;3.07;;;2.07;;
46505;SDS011;32220;49.808;9.968;2023-07-20T00:47:35;4.00;;;2.30;;
46505;SDS011;32220;49.808;9.968;2023-07-20T00:50:04;3.63;;;2.20;;
46505;SDS011;32220;49.808;9.968;2023-07-20T00:52:33;6.30;;;3.33;;
46505;SDS011;32220;49.808;9.968;2023-07-20T00:55:01;2.57;;;2.10;;
46505;SDS011;32220;49.808;9.968;2023-07-20T00:57:31;2.60;;;2.20;;
46505;SDS011;32220;49.808;9.968;2023-07-20T00:59:59;3.43;;;2.70;;
46505;SDS011;32220;49.808;9.968;2023-07-20T01:02:28;3.03;;;2.20;;
46505;SDS011;32220;49.808;9.968;2023-07-20T01:04:55;3.20;;;2.10;;
46505;SDS011;32220;49.808;9.968;2023-07-20T01:07:24;3.33;;;2.90;;
46505;SDS011;32220;49.808;9.968;2023-07-20T01:09:57;2.57;;;2.37;;
46505;SDS011;32220;49.808;9.968;2023-07-20T01:12:32;3.40;;;2.00;;
46505;SDS011;32220;49.808;9.968;2023-07-20T01:15:08;4.20;;;2.97;;
46505;SDS011;32220;49.808;9.968;2023-07-20T01:17:36;2.70;;;2.50;;
46505;SDS011;32220;49.808;9.968;2023-07-20T01:20:05;3.33;;;2.53;;
46505;SDS011;32220;49.808;9.968;2023-07-20T01:22:40;4.23;;;2.67;;
46505;SDS011;32220;49.808;9.968;2023-07-20T01:25:25;3.50;;;2.50;;
46505;SDS011;32220;49.808;9.968;2023-07-20T01:28:17;3.60;;;2.23;;
46505;SDS011;32220;49.808;9.968;2023-07-20T01:31:18;4.57;;;2.80;;
46505;SDS011;32220;49.808;9.968;2023-07-20T01:33:49;2.83;;;2.60;;
46505;SDS011;32220;49.808;9.968;2023-07-20T01:36:19;2.67;;;2.33;;
46505;SDS011;32220;49.808;9.968;2023-07-20T01:38:49;2.40;;;2.20;;
46505;SDS011;32220;49.808;9.968;2023-07-20T01:41:17;4.20;;;2.37;;
46505;SDS011;32220;49.808;9.968;2023-07-20T01:43:46;2.87;;;2.60;;
46505;SDS011;32220;49.808;9.968;2023-07-20T01:46:15;3.30;;;2.20;;
46505;SDS011;32220;49.808;9.968;2023-07-20T01:48:44;3.87;;;2.57;;
46505;SDS011;32220;49.808;9.968;2023-07-20T01:51:12;5.47;;;2.60;;
46505;SDS011;32220;49.808;9.968;2023-07-20T01:53:40;6.33;;;2.50;;
46505;SDS011;32220;49.808;9.968;2023-07-20T01:56:08;4.73;;;2.80;;
46505;SDS011;32220;49.808;9.968;2023-07-20T01:58:38;3.00;;;2.20;;
46505;SDS011;32220;49.808;9.968;2023-07-20T02:01:05;2.77;;;2.50;;
46505;SDS011;32220;49.808;9.968;2023-07-20T02:03:33;3.43;;;2.40;;
46505;SDS011;32220;49.808;9.968;2023-07-20T02:06:03;2.33;;;2.13;;
46505;SDS011;32220;49.808;9.968;2023-07-20T02:08:31;2.73;;;2.40;;
46505;SDS011;32220;49.808;9.968;2023-07-20T02:10:58;2.67;;;2.40;;
46505;SDS011;32220;49.808;9.968;2023-07-20T02:13:26;4.70;;;2.60;;
46505;SDS011;32220;49.808;9.968;2023-07-20T02:15:54;4.13;;;2.37;;
46505;SDS011;32220;49.808;9.968;2023-07-20T02:18:22;3.60;;;2.60;;
46505;SDS011;32220;49.808;9.968;2023-07-20T02:20:52;2.00;;;1.80;;
46505;SDS011;32220;49.808;9.968;2023-07-20T02:23:22;2.03;;;1.83;;
46505;SDS011;32220;49.808;9.968;2023-07-20T02:25:49;2.40;;;2.20;;
46505;SDS011;32220;49.808;9.968;2023-07-20T02:28:17;3.60;;;2.30;;
46505;SDS011;32220;49.808;9.968;2023-07-20T02:30:44;4.17;;;2.63;;
46505;SDS011;32220;49.808;9.968;2023-07-20T02:33:12;3.60;;;2.37;;
46505;SDS011;32220;49.808;9.968;2023-07-20T02:35:40;2.93;;;2.13;;
46505;SDS011;32220;49.808;9.968;2023-07-20T02:38:08;2.83;;;2.20;;
46505;SDS011;32220;49.808;9.968;2023-07-20T02:40:37;2.30;;;2.10;;
46505;SDS011;32220;49.808;9.968;2023-07-20T02:43:05;2.17;;;1.97;;
46505;SDS011;32220;49.808;9.968;2023-07-20T02:45:32;2.67;;;1.83;;
46505;SDS011;32220;49.808;9.968;2023-07-20T02:47:59;3.93;;;2.57;;
46505;SDS011;32220;49.808;9.968;2023-07-20T02:50:28;2.60;;;2.40;;
46505;SDS011;32220;49.808;9.968;2023-07-20T02:52:56;2.07;;;1.80;;
46505;SDS011;32220;49.808;9.968;2023-07-20T02:55:24;3.10;;;2.13;;
46505;SDS011;32220;49.808;9.968;2023-07-20T02:57:53;4.07;;;2.40;;
46505;SDS011;32220;49.808;9.968;2023-07-20T03:00:20;2.60;;;2.33;;
46505;SDS011;32220;49.808;9.968;2023-07-20T03:02:49;3.60;;;2.50;;
46505;SDS011;32220;49.808;9.968;2023-07-20T03:05:18;2.43;;;2.17;;
46505;SDS011;32220;49.808;9.968;2023-07-20T03:07:46;4.47;;;2.47;;
46505;SDS011;32220;49.808;9.968;2023-07-20T03:10:14;7.77;;;3.03;;
46505;SDS011;32220;49.808;9.968;2023-07-20T03:12:42;5.03;;;2.90;;
46505;SDS011;32220;49.808;9.968;2023-07-20T03:15:11;2.90;;;2.20;;
46505;SDS011;32220;49.808;9.968;2023-07-20T03:17:39;3.03;;;2.17;;
46505;SDS011;32220;49.808;9.968;2023-07-20T03:20:08;4.53;;;2.60;;
46505;SDS011;32220;49.808;9.968;2023-07-20T03:22:38;2.80;;;2.60;;
46505;SDS011;32220;49.808;9.968;2023-07-20T03:25:06;3.87;;;2.40;;
46505;SDS011;32220;49.808;9.968;2023-07-20T03:27:34;3.80;;;2.60;;
46505;SDS011;32220;49.808;9.968;2023-07-20T03:30:02;5.03;;;2.23;;
46505;SDS011;32220;49.808;9.968;2023-07-20T03:32:34;3.97;;;2.03;;
46505;SDS011;32220;49.808;9.968;2023-07-20T03:35:02;4.70;;;2.60;;
46505;SDS011;32220;49.808;9.968;2023-07-20T03:37:31;1.90;;;1.80;;
46505;SDS011;32220;49.808;9.968;2023-07-20T03:40:01;2.77;;;1.80;;
46505;SDS011;32220;49.808;9.968;2023-07-20T03:42:29;4.20;;;2.50;;
46505;SDS011;32220;49.808;9.968;2023-07-20T03:44:56;3.60;;;2.17;;
46505;SDS011;32220;49.808;9.968;2023-07-20T03:47:24;3.60;;;2.60;;
46505;SDS011;32220;49.808;9.968;2023-07-20T03:49:53;3.57;;;2.87;;
46505;SDS011;32220;49.808;9.968;2023-07-20T03:52:21;4.60;;;2.50;;
46505;SDS011;32220;49.808;9.968;2023-07-20T03:54:49;3.57;;;2.30;;
46505;SDS011;32220;49.808;9.968;2023-07-20T03:57:17;3.10;;;2.30;;
46505;SDS011;32220;49.808;9.968;2023-07-20T03:59:45;2.83;;;2.37;;
46505;SDS011;32220;49.808;9.968;2023-07-20T04:02:13;3.67;;;2.67;;
46505;SDS011;32220;49.808;9.968;2023-07-20T04:04:42;2.67;;;2.33;;
46505;SDS011;32220;49.808;9.968;2023-07-20T04:07:11;3.20;;;2.23;;
46505;SDS011;32220;49.808;9.968;2023-07-20T04:09:42;3.30;;;2.57;;
46505;SDS011;32220;49.808;9.968;2023-07-20T04:12:09;2.53;;;2.33;;
46505;SDS011;32220;49.808;9.968;2023-07-20T04:14:38;3.23;;;2.60;;
46505;SDS011;32220;49.808;9.968;2023-07-20T04:17:05;4.77;;;2.80;;
46505;SDS011;32220;49.808;9.968;2023-07-20T04:19:33;4.93;;;2.50;;
46505;SDS011;32220;49.808;9.968;2023-07-20T04:22:01;3.10;;;2.73;;
46505;SDS011;32220;49.808;9.968;2023-07-20T04:24:31;3.60;;;2.10;;
46505;SDS011;32220;49.808;9.968;2023-07-20T04:26:59;4.40;;;2.40;;
46505;SDS011;32220;49.808;9.968;2023-07-20T04:29:26;3.60;;;2.40;;
46505;SDS011;32220;49.808;9.968;2023-07-20T04:31:54;3.50;;;2.20;;
46505;SDS011;32220;49.808;9.968;2023-07-20T04:34:22;3.53;;;2.03;;
46505;SDS011;32220;49.808;9.968;2023-07-20T04:36:50;2.87;;;2.30;;
46505;SDS011;32220;49.808;9.968;2023-07-20T04:39:18;6.10;;;3.27;;
46505;SDS011;32220;49.808;9.968;2023-07-20T04:41:47;3.00;;;2.60;;
46505;SDS011;32220;49.808;9.968;2023-07-20T04:44:15;5.20;;;2.60;;
46505;SDS011;32220;49.808;9.968;2023-07-20T04:46:43;2.97;;;2.30;;
46505;SDS011;32220;49.808;9.968;2023-07-20T04:49:11;2.87;;;2.67;;
46505;SDS011;32220;49.808;9.968;2023-07-20T04:51:41;3.13;;;2.80;;
46505;SDS011;32220;49.808;9.968;2023-07-20T04:54:09;3.27;;;2.67;;
46505;SDS011;32220;49.808;9.968;2023-07-20T04:56:38;3.00;;;2.70;;
46505;SDS011;32220;49.808;9.968;2023-07-20T04:59:10;4.17;;;2.53;;
46505;SDS011;32220;49.808;9.968;2023-07-20T05:01:38;3.20;;;2.10;;
46505;SDS011;32220;49.808;9.968;2023-07-20T05:04:06;5.10;;;2.70;;
46505;SDS011;32220;49.808;9.968;2023-07-20T05:06:34;4.50;;;2.77;;
46505;SDS011;32220;49.808;9.968;2023-07-20T05:09:01;5.13;;;2.40;;
46505;SDS011;32220;49.808;9.968;2023-07-20T05:11:29;4.27;;;2.43;;
46505;SDS011;32220;49.808;9.968;2023-07-20T05:13:57;2.97;;;2.40;;
46505;SDS011;32220;49.808;9.968;2023-07-20T05:16:26;4.27;;;2.80;;
46505;SDS011;32220;49.808;9.968;2023-07-20T05:18:57;4.97;;;2.53;;
46505;SDS011;32220;49.808;9.968;2023-07-20T05:21:24;5.27;;;2.47;;
46505;SDS011;32220;49.808;9.968;2023-07-20T05:23:52;3.87;;;2.27;;
46505;SDS011;32220;49.808;9.968;2023-07-20T05:26:20;3.70;;;2.53;;
46505;SDS011;32220;49.808;9.968;2023-07-20T05:28:47;3.40;;;2.50;;
46505;SDS011;32220;49.808;9.968;2023-07-20T05:31:15;3.20;;;2.60;;
46505;SDS011;32220;49.808;9.968;2023-07-20T05:33:44;4.60;;;2.60;;
46505;SDS011;32220;49.808;9.968;2023-07-20T05:36:12;4.10;;;2.37;;
46505;SDS011;32220;49.808;9.968;2023-07-20T05:38:40;4.13;;;2.67;;
46505;SDS011;32220;49.808;9.968;2023-07-20T05:41:07;3.73;;;2.47;;
46505;SDS011;32220;49.808;9.968;2023-07-20T05:43:36;5.63;;;2.63;;
46505;SDS011;32220;49.808;9.968;2023-07-20T05:46:03;3.90;;;2.63;;
46505;SDS011;32220;49.808;9.968;2023-07-20T05:48:31;3.30;;;2.20;;
46505;SDS011;32220;49.808;9.968;2023-07-20T05:51:01;3.67;;;2.40;;
46505;SDS011;32220;49.808;9.968;2023-07-20T05:53:28;2.53;;;2.33;;
46505;SDS011;32220;49.808;9.968;2023-07-20T05:55:56;5.90;;;2.80;;
46505;SDS011;32220;49.808;9.968;2023-07-20T05:58:24;2.60;;;2.17;;
46505;SDS011;32220;49.808;9.968;2023-07-20T06:00:53;3.43;;;2.60;;
46505;SDS011;32220;49.808;9.968;2023-07-20T06:03:20;5.80;;;2.50;;
46505;SDS011;32220;49.808;9.968;2023-07-20T06:05:49;3.63;;;2.30;;
46505;SDS011;32220;49.808;9.968;2023-07-20T06:08:19;4.10;;;2.27;;
46505;SDS011;32220;49.808;9.968;2023-07-20T06:10:49;3.67;;;2.20;;
46505;SDS011;32220;49.808;9.968;2023-07-20T06:13:18;3.03;;;2.53;;
46505;SDS011;32220;49.808;9.968;2023-07-20T06:15:45;3.70;;;2.30;;
46505;SDS011;32220;49.808;9.968;2023-07-20T06:18:13;4.37;;;2.93;;
46505;SDS011;32220;49.808;9.968;2023-07-20T06:20:41;3.83;;;2.50;;
46505;SDS011;32220;49.808;9.968;2023-07-20T06:23:09;6.17;;;2.67;;
46505;SDS011;32220;49.808;9.968;2023-07-20T06:25:38;3.43;;;2.30;;
46505;SDS011;32220;49.808;9.968;2023-07-20T06:28:06;2.87;;;2.50;;
46505;SDS011;32220;49.808;9.968;2023-07-20T06:30:34;4.10;;;3.20;;
46505;SDS011;32220;49.808;9.968;2023-07-20T06:33:02;7.50;;;2.77;;
46505;SDS011;32220;49.808;9.968;2023-07-20T06:35:29;3.10;;;2.07;;
46505;SDS011;32220;49.808;9.968;2023-07-20T06:37:57;2.87;;;2.40;;
46505;SDS011;32220;49.808;9.968;2023-07-20T06:40:26;5.50;;;2.50;;
46505;SDS011;32220;49.808;9.968;2023-07-20T06:42:55;3.90;;;2.40;;
46505;SDS011;32220;49.808;9.968;2023-07-20T06:45:23;5.07;;;2.60;;
46505;SDS011;32220;49.808;9.968;2023-07-20T06:47:51;3.50;;;2.60;;
46505;SDS011;32220;49.808;9.968;2023-07-20T06:50:18;2.40;;;2.20;;
46505;SDS011;32220;49.808;9.968;2023-07-20T06:52:46;8.00;;;2.90;;
46505;SDS011;32220;49.808;9.968;2023-07-20T06:55:14;5.00;;;2.43;;
46505;SDS011;32220;49.808;9.968;2023-07-20T06:57:42;4.47;;;2.33;;
46505;SDS011;32220;49.808;9.968;2023-07-20T07:00:12;3.20;;;2.60;;
46505;SDS011;32220;49.808;9.968;2023-07-20T07:02:40;3.47;;;2.10;;
46505;SDS011;32220;49.808;9.968;2023-07-20T07:05:08;4.27;;;2.50;;
46505;SDS011;32220;49.808;9.968;2023-07-20T07:07:36;4.67;;;2.50;;
46505;SDS011;32220;49.808;9.968;2023-07-20T07:10:04;4.60;;;2.40;;
46505;SDS011;32220;49.808;9.968;2023-07-20T07:12:33;4.83;;;2.43;;
46505;SDS011;32220;49.808;9.968;2023-07-20T07:15:01;4.57;;;2.30;;
46505;SDS011;32220;49.808;9.968;2023-07-20T07:17:30;5.87;;;2.87;;
46505;SDS011;32220;49.808;9.968;2023-07-20T07:19:58;5.03;;;2.47;;
46505;SDS011;32220;49.808;9.968;2023-07-20T07:22:26;3.40;;;2.23;;
46505;SDS011;32220;49.808;9.968;2023-07-20T07:24:55;5.33;;;2.40;;
46505;SDS011;32220;49.808;9.968;2023-07-20T07:27:23;4.20;;;2.40;;
46505;SDS011;32220;49.808;9.968;2023-07-20T07:29:50;3.37;;;2.20;;
46505;SDS011;32220;49.808;9.968;2023-07-20T07:32:18;3.87;;;2.40;;
46505;SDS011;32220;49.808;9.968;2023-07-20T07:34:47;4.77;;;2.33;;
46505;SDS011;32220;49.808;9.968;2023-07-20T07:37:15;4.67;;;2.30;;
46505;SDS011;32220;49.808;9.968;2023-07-20T07:39:45;6.57;;;2.83;;
46505;SDS011;32220;49.808;9.968;2023-07-20T07:42:13;3.33;;;2.60;;
46505;SDS011;32220;49.808;9.968;2023-07-20T07:44:40;4.40;;;2.30;;
46505;SDS011;32220;49.808;9.968;2023-07-20T07:47:08;5.73;;;2.50;;
46505;SDS011;32220;49.808;9.968;2023-07-20T07:49:36;4.77;;;2.50;;
46505;SDS011;32220;49.808;9.968;2023-07-20T07:52:05;3.77;;;2.00;;
46505;SDS011;32220;49.808;9.968;2023-07-20T07:54:34;3.33;;;2.20;;
46505;SDS011;32220;49.808;9.968;2023-07-20T07:57:01;4.40;;;2.37;;
46505;SDS011;32220;49.808;9.968;2023-07-20T07:59:29;2.40;;;2.10;;
46505;SDS011;32220;49.808;9.968;2023-07-20T08:02:04;2.63;;;2.10;;
46505;SDS011;32220;49.808;9.968;2023-07-20T08:04:33;4.20;;;2.00;;
46505;SDS011;32220;49.808;9.968;2023-07-20T08:07:00;3.73;;;2.40;;
46505;SDS011;32220;49.808;9.968;2023-07-20T08:09:33;2.97;;;2.20;;
46505;SDS011;32220;49.808;9.968;2023-07-20T08:12:01;3.07;;;1.93;;
46505;SDS011;32220;49.808;9.968;2023-07-20T08:14:29;3.47;;;2.20;;
46505;SDS011;32220;49.808;9.968;2023-07-20T08:16:58;2.10;;;1.90;;
46505;SDS011;32220;49.808;9.968;2023-07-20T08:19:25;4.57;;;2.10;;
46505;SDS011;32220;49.808;9.968;2023-07-20T08:21:53;2.43;;;1.80;;
46505;SDS011;32220;49.808;9.968;2023-07-20T08:24:21;2.95;;;1.85;;
46505;SDS011;32220;49.808;9.968;2023-07-20T08:26:50;1.92;;;1.65;;
46505;SDS011;32220;49.808;9.968;2023-07-20T08:29:18;2.30;;;2.10;;
46505;SDS011;32220;49.808;9.968;2023-07-20T08:31:46;5.22;;;2.00;;
46505;SDS011;32220;49.808;9.968;2023-07-20T08:34:14;4.00;;;2.40;;
46505;SDS011;32220;49.808;9.968;2023-07-20T08:36:42;2.65;;;1.90;;
46505;SDS011;32220;49.808;9.968;2023-07-20T08:39:09;2.80;;;2.00;;
46505;SDS011;32220;49.808;9.968;2023-07-20T08:41:37;2.78;;;1.95;;
46505;SDS011;32220;49.808;9.968;2023-07-20T08:44:07;1.93;;;1.80;;
46505;SDS011;32220;49.808;9.968;2023-07-20T08:46:36;4.17;;;2.07;;
46505;SDS011;32220;49.808;9.968;2023-07-20T08:49:05;3.73;;;1.90;;
46505;SDS011;32220;49.808;9.968;2023-07-20T08:51:33;3.47;;;2.00;;
46505;SDS011;32220;49.808;9.968;2023-07-20T08:54:03;3.93;;;2.10;;
46505;SDS011;32220;49.808;9.968;2023-07-20T08:56:30;4.03;;;1.73;;
46505;SDS011;32220;49.808;9.968;2023-07-20T08:59:00;3.20;;;1.80;;
46505;SDS011;32220;49.808;9.968;2023-07-20T09:01:31;2.27;;;1.60;;
46505;SDS011;32220;49.808;9.968;2023-07-20T09:03:59;5.10;;;2.00;;
46505;SDS011;32220;49.808;9.968;2023-07-20T09:06:27;2.90;;;1.80;;
46505;SDS011;32220;49.808;9.968;2023-07-20T09:08:54;2.33;;;1.80;;
46505;SDS011;32220;49.808;9.968;2023-07-20T09:11:23;2.60;;;1.73;;
46505;SDS011;32220;49.808;9.968;2023-07-20T09:14:01;2.50;;;1.80;;
46505;SDS011;32220;49.808;9.968;2023-07-20T09:16:31;2.47;;;2.00;;
46505;SDS011;32220;49.808;9.968;2023-07-20T09:18:59;4.73;;;1.90;;
46505;SDS011;32220;49.808;9.968;2023-07-20T09:21:28;3.47;;;1.77;;
46505;SDS011;32220;49.808;9.968;2023-07-20T09:23:57;2.57;;;1.83;;
46505;SDS011;32220;49.808;9.968;2023-07-20T09:26:25;2.20;;;1.73;;
46505;SDS011;32220;49.808;9.968;2023-07-20T09:28:52;4.70;;;1.80;;
46505;SDS011;32220;49.808;9.968;2023-07-20T09:31:22;2.87;;;1.93;;
46505;SDS011;32220;49.808;9.968;2023-07-20T09:33:52;2.30;;;1.70;;
46505;SDS011;32220;49.808;9.968;2023-07-20T09:36:20;2.37;;;1.60;;
46505;SDS011;32220;49.808;9.968;2023-07-20T09:38:48;2.50;;;2.00;;
46505;SDS011;32220;49.808;9.968;2023-07-20T09:41:16;4.60;;;1.97;;
46505;SDS011;32220;49.808;9.968;2023-07-20T09:43:45;3.13;;;1.97;;
46505;SDS011;32220;49.808;9.968;2023-07-20T09:46:13;2.13;;;1.80;;
46505;SDS011;32220;49.808;9.968;2023-07-20T09:48:48;2.97;;;1.63;;
46505;SDS011;32220;49.808;9.968;2023-07-20T09:51:21;1.63;;;1.50;;
46505;SDS011;32220;49.808;9.968;2023-07-20T09:53:49;2.00;;;1.40;;
46505;SDS011;32220;49.808;9.968;2023-07-20T09:56:21;2.83;;;1.57;;
46505;SDS011;32220;49.808;9.968;2023-07-20T09:58:50;1.83;;;1.63;;
46505;SDS011;32220;49.808;9.968;2023-07-20T10:01:18;1.50;;;1.40;;
46505;SDS011;32220;49.808;9.968;2023-07-20T10:03:47;2.20;;;1.50;;
46505;SDS011;32220;49.808;9.968;2023-07-20T10:06:20;2.38;;;1.50;;
46505;SDS011;32220;49.808;9.968;2023-07-20T10:08:52;3.57;;;1.60;;
46505;SDS011;32220;49.808;9.968;2023-07-20T10:11:21;1.33;;;1.20;;
46505;SDS011;32220;49.808;9.968;2023-07-20T10:13:50;2.50;;;1.50;;
46505;SDS011;32220;49.808;9.968;2023-07-20T10:16:22;1.73;;;1.37;;
46505;SDS011;32220;49.808;9.968;2023-07-20T10:18:55;1.73;;;1.27;;
46505;SDS011;32220;49.808;9.968;2023-07-20T10:21:32;2.13;;;1.70;;
46505;SDS011;32220;49.808;9.968;2023-07-20T10:24:03;1.73;;;1.30;;
46505;SDS011;32220;49.808;9.968;2023-07-20T10:26:32;1.80;;;1.60;;
46505;SDS011;32220;49.808;9.968;2023-07-20T10:29:00;1.57;;;1.40;;
46505;SDS011;32220;49.808;9.968;2023-07-20T10:31:29;2.73;;;1.70;;
46505;SDS011;32220;49.808;9.968;2023-07-20T10:33:57;2.17;;;1.50;;
46505;SDS011;32220;49.808;9.968;2023-07-20T10:36:25;1.60;;;1.50;;
46505;SDS011;32220;49.808;9.968;2023-07-20T10:38:56;2.83;;;1.67;;
46505;SDS011;32220;49.808;9.968;2023-07-20T10:41:27;1.30;;;1.20;;
46505;SDS011;32220;49.808;9.968;2023-07-20T10:43:58;2.23;;;1.30;;
46505;SDS011;32220;49.808;9.968;2023-07-20T10:46:35;2.58;;;1.48;;
46505;SDS011;32220;49.808;9.968;2023-07-20T10:49:10;2.97;;;1.30;;
46505;SDS011;32220;49.808;9.968;2023-07-20T10:51:39;1.70;;;1.45;;
46505;SDS011;32220;49.808;9.968;2023-07-20T10:54:12;2.17;;;1.70;;
46505;SDS011;32220;49.808;9.968;2023-07-20T10:59:51;2.57;;;1.40;;
46505;SDS011;32220;49.808;9.968;2023-07-20T11:02:18;2.42;;;1.35;;
46505;SDS011;32220;49.808;9.968;2023-07-20T11:04:48;3.60;;;1.90;;
46505;SDS011;32220;49.808;9.968;2023-07-20T11:07:16;2.33;;;1.63;;
46505;SDS011;32220;49.808;9.968;2023-07-20T11:09:47;2.38;;;1.48;;
46505;SDS011;32220;49.808;9.968;2023-07-20T11:12:15;2.10;;;1.47;;
46505;SDS011;32220;49.808;9.968;2023-07-20T11:14:53;2.78;;;1.65;;
46505;SDS011;32220;49.808;9.968;2023-07-20T11:17:28;1.53;;;1.40;;
46505;SDS011;32220;49.808;9.968;2023-07-20T11:19:58;2.83;;;1.50;;
46505;SDS011;32220;49.808;9.968;2023-07-20T11:22:27;2.57;;;1.77;;
46505;SDS011;32220;49.808;9.968;2023-07-20T11:24:56;1.77;;;1.40;;
46505;SDS011;32220;49.808;9.968;2023-07-20T11:27:25;1.70;;;1.60;;
46505;SDS011;32220;49.808;9.968;2023-07-20T11:29:54;2.03;;;1.53;;
46505;SDS011;32220;49.808;9.968;2023-07-20T11:32:22;1.90;;;1.70;;
46505;SDS011;32220;49.808;9.968;2023-07-20T11:34:50;1.43;;;1.33;;
46505;SDS011;32220;49.808;9.968;2023-07-20T11:37:18;1.50;;;1.23;;
46505;SDS011;32220;49.808;9.968;2023-07-20T11:39:46;2.30;;;1.50;;
46505;SDS011;32220;49.808;9.968;2023-07-20T11:42:15;2.72;;;1.73;;
46505;SDS011;32220;49.808;9.968;2023-07-20T11:44:51;2.38;;;1.40;;
46505;SDS011;32220;49.808;9.968;2023-07-20T11:47:19;2.40;;;1.43;;
46505;SDS011;32220;49.808;9.968;2023-07-20T11:49:47;3.03;;;1.57;;
46505;SDS011;32220;49.808;9.968;2023-07-20T11:52:20;1.90;;;1.30;;
46505;SDS011;32220;49.808;9.968;2023-07-20T11:54:50;1.87;;;1.30;;
46505;SDS011;32220;49.808;9.968;2023-07-20T11:57:21;1.47;;;1.30;;
46505;SDS011;32220;49.808;9.968;2023-07-20T11:59:55;2.60;;;1.97;;
46505;SDS011;32220;49.808;9.968;2023-07-20T12:02:23;2.40;;;1.40;;
46505;SDS011;32220;49.808;9.968;2023-07-20T12:04:51;1.20;;;1.10;;
46505;SDS011;32220;49.808;9.968;2023-07-20T12:07:19;3.60;;;1.73;;
46505;SDS011;32220;49.808;9.968;2023-07-20T12:10:02;1.67;;;1.30;;
46505;SDS011;32220;49.808;9.968;2023-07-20T12:12:32;1.43;;;1.10;;
46505;SDS011;32220;49.808;9.968;2023-07-20T12:15:15;2.73;;;1.43;;
46505;SDS011;32220;49.808;9.968;2023-07-20T12:17:44;2.90;;;1.50;;
46505;SDS011;32220;49.808;9.968;2023-07-20T12:20:12;2.28;;;1.63;;
46505;SDS011;32220;49.808;9.968;2023-07-20T12:22:40;2.42;;;1.30;;
46505;SDS011;32220;49.808;9.968;2023-07-20T12:25:08;1.63;;;1.30;;
46505;SDS011;32220;49.808;9.968;2023-07-20T12:27:37;3.20;;;1.60;;
46505;SDS011;32220;49.808;9.968;2023-07-20T12:30:06;3.17;;;1.93;;
46505;SDS011;32220;49.808;9.968;2023-07-20T12:32:34;1.33;;;1.20;;
46505;SDS011;32220;49.808;9.968;2023-07-20T12:35:02;2.83;;;1.40;;
46505;SDS011;32220;49.808;9.968;2023-07-20T12:37:30;1.60;;;1.50;;
46505;SDS011;32220;49.808;9.968;2023-07-20T12:39:57;1.50;;;1.40;;
46505;SDS011;32220;49.808;9.968;2023-07-20T12:42:25;1.30;;;1.20;;
46505;SDS011;32220;49.808;9.968;2023-07-20T12:44:55;2.03;;;1.43;;
46505;SDS011;32220;49.808;9.968;2023-07-20T12:47:22;1.80;;;1.23;;
46505;SDS011;32220;49.808;9.968;2023-07-20T12:49:50;1.97;;;1.10;;
46505;SDS011;32220;49.808;9.968;2023-07-20T12:52:18;1.80;;;1.40;;
46505;SDS011;32220;49.808;9.968;2023-07-20T12:54:45;1.40;;;1.30;;
46505;SDS011;32220;49.808;9.968;2023-07-20T12:57:13;1.60;;;1.27;;
46505;SDS011;32220;49.808;9.968;2023-07-20T12:59:40;1.83;;;1.50;;
46505;SDS011;32220;49.808;9.968;2023-07-20T13:02:10;1.53;;;1.40;;
46505;SDS011;32220;49.808;9.968;2023-07-20T13:04:38;1.77;;;1.40;;
46505;SDS011;32220;49.808;9.968;2023-07-20T13:07:09;1.53;;;1.20;;
46505;SDS011;32220;49.808;9.968;2023-07-20T13:09:37;1.73;;;1.43;;
46505;SDS011;32220;49.808;9.968;2023-07-20T13:12:05;1.47;;;1.30;;
46505;SDS011;32220;49.808;9.968;2023-07-20T13:14:33;2.43;;;1.30;;
46505;SDS011;32220;49.808;9.968;2023-07-20T13:17:01;1.10;;;1.00;;
46505;SDS011;32220;49.808;9.968;2023-07-20T13:19:30;1.70;;;1.60;;
46505;SDS011;32220;49.808;9.968;2023-07-20T13:21:58;2.53;;;1.30;;
46505;SDS011;32220;49.808;9.968;2023-07-20T13:24:26;2.50;;;1.53;;
46505;SDS011;32220;49.808;9.968;2023-07-20T13:26:54;1.50;;;1.20;;
46505;SDS011;32220;49.808;9.968;2023-07-20T13:29:21;2.97;;;1.37;;
46505;SDS011;32220;49.808;9.968;2023-07-20T13:31:49;1.33;;;1.20;;
46505;SDS011;32220;49.808;9.968;2023-07-20T13:34:17;3.97;;;1.43;;
46505;SDS011;32220;49.808;9.968;2023-07-20T13:36:45;1.60;;;1.20;;
46505;SDS011;32220;49.808;9.968;2023-07-20T13:39:13;1.53;;;1.30;;
46505;SDS011;32220;49.808;9.968;2023-07-20T13:41:41;1.67;;;1.57;;
46505;SDS011;32220;49.808;9.968;2023-07-20T13:44:08;2.20;;;1.40;;
46505;SDS011;32220;49.808;9.968;2023-07-20T13:46:36;1.40;;;1.23;;
46505;SDS011;32220;49.808;9.968;2023-07-20T13:49:05;1.67;;;1.30;;
46505;SDS011;32220;49.808;9.968;2023-07-20T13:51:33;1.40;;;1.23;;
46505;SDS011;32220;49.808;9.968;2023-07-20T13:54:02;2.03;;;1.43;;
46505;SDS011;32220;49.808;9.968;2023-07-20T13:56:30;1.30;;;1.20;;
46505;SDS011;32220;49.808;9.968;2023-07-20T13:58:58;1.60;;;1.30;;
46505;SDS011;32220;49.808;9.968;2023-07-20T14:01:25;2.00;;;1.30;;
46505;SDS011;32220;49.808;9.968;2023-07-20T14:03:54;2.10;;;1.40;;
46505;SDS011;32220;49.808;9.968;2023-07-20T14:06:22;1.77;;;1.30;;
46505;SDS011;32220;49.808;9.968;2023-07-20T14:08:50;1.50;;;1.40;;
46505;SDS011;32220;49.808;9.968;2023-07-20T14:11:20;1.40;;;1.30;;
46505;SDS011;32220;49.808;9.968;2023-07-20T14:13:48;1.50;;;1.30;;
46505;SDS011;32220;49.808;9.968;2023-07-20T14:16:16;1.23;;;1.10;;
46505;SDS011;32220;49.808;9.968;2023-07-20T14:18:44;1.47;;;1.20;;
46505;SDS011;32220;49.808;9.968;2023-07-20T14:21:13;1.97;;;1.00;;
46505;SDS011;32220;49.808;9.968;2023-07-20T14:23:41;1.53;;;1.30;;
46505;SDS011;32220;49.808;9.968;2023-07-20T14:26:08;1.47;;;1.30;;
46505;SDS011;32220;49.808;9.968;2023-07-20T14:28:38;1.03;;;0.97;;
46505;SDS011;32220;49.808;9.968;2023-07-20T14:31:05;1.23;;;1.13;;
46505;SDS011;32220;49.808;9.968;2023-07-20T14:33:33;1.47;;;1.20;;
46505;SDS011;32220;49.808;9.968;2023-07-20T14:36:01;1.83;;;1.10;;
46505;SDS011;32220;49.808;9.968;2023-07-20T14:38:30;1.43;;;1.10;;
46505;SDS011;32220;49.808;9.968;2023-07-20T14:40:58;1.70;;;1.00;;
46505;SDS011;32220;49.808;9.968;2023-07-20T14:43:26;1.10;;;1.10;;
46505;SDS011;32220;49.808;9.968;2023-07-20T14:45:55;2.07;;;1.20;;
46505;SDS011;32220;49.808;9.968;2023-07-20T14:48:23;1.40;;;1.30;;
46505;SDS011;32220;49.808;9.968;2023-07-20T14:50:51;2.40;;;1.20;;
46505;SDS011;32220;49.808;9.968;2023-07-20T14:53:18;1.33;;;1.23;;
46505;SDS011;32220;49.808;9.968;2023-07-20T14:55:46;1.37;;;1.20;;
46505;SDS011;32220;49.808;9.968;2023-07-20T14:58:14;1.77;;;1.17;;
46505;SDS011;32220;49.808;9.968;2023-07-20T15:00:42;2.10;;;1.40;;